sensor_id;sensor_type;location;lat;lon;timestamp;pressure;altitude;pressure_sealevel;temperature;humidity
24013;BME280;12220;50.194;18.948;2023-08-01T00:00:27;101106.90;;;19.15;66.36
24013;BME280;12220;50.194;18.948;2023-08-01T00:02:33;101098.89;;;19.12;66.40
24013;BME280;12220;50.194;18.948;2023-08-01T00:04:35;101097.45;;;19.08;66.47
24013;BME280;12220;50.194;18.948;2023-08-01T00:06:39;101094.23;;;19.03;66.54
24013;BME280;12220;50.194;18.948;2023-08-01T00:08:41;101097.48;;;18.98;66.65
24013;BME280;12220;50.194;18.948;2023-08-01T00:10:42;101097.80;;;18.95;66.73
24013;BME280;12220;50.194;18.948;2023-08-01T00:12:43;101097.24;;;18.92;66.84
24013;BME280;12220;50.194;18.948;2023-08-01T00:14:54;101100.45;;;18.87;66.92
24013;BME280;12220;50.194;18.948;2023-08-01T00:17:05;101096.23;;;18.83;67.06
24013;BME280;12220;50.194;18.948;2023-08-01T00:19:02;101090.10;;;18.79;67.11
24013;BME280;12220;50.194;18.948;2023-08-01T00:21:04;101093.19;;;18.76;67.24
24013;BME280;12220;50.194;18.948;2023-08-01T00:23:12;101095.25;;;18.74;67.35
24013;BME280;12220;50.194;18.948;2023-08-01T00:25:13;101101.10;;;18.71;67.41
24013;BME280;12220;50.194;18.948;2023-08-01T00:27:14;101095.56;;;18.71;67.53
24013;BME280;12220;50.194;18.948;2023-08-01T00:29:15;101091.89;;;18.71;67.64
24013;BME280;12220;50.194;18.948;2023-08-01T00:31:24;101089.27;;;18.69;67.66
24013;BME280;12220;50.194;18.948;2023-08-01T00:33:25;101085.79;;;18.67;67.74
24013;BME280;12220;50.194;18.948;2023-08-01T00:35:29;101086.09;;;18.64;67.79
24013;BME280;12220;50.194;18.948;2023-08-01T00:37:30;101068.55;;;18.63;67.84
24013;BME280;12220;50.194;18.948;2023-08-01T00:39:39;101077.77;;;18.64;67.84
24013;BME280;12220;50.194;18.948;2023-08-01T00:41:40;101070.48;;;18.63;67.94
24013;BME280;12220;50.194;18.948;2023-08-01T00:43:41;101055.74;;;18.62;68.00
24013;BME280;12220;50.194;18.948;2023-08-01T00:45:43;101052.08;;;18.62;68.05
24013;BME280;12220;50.194;18.948;2023-08-01T00:47:54;101051.37;;;18.60;68.04
24013;BME280;12220;50.194;18.948;2023-08-01T00:49:56;101048.75;;;18.58;68.10
24013;BME280;12220;50.194;18.948;2023-08-01T00:51:57;101046.84;;;18.59;68.16
24013;BME280;12220;50.194;18.948;2023-08-01T00:54:00;101049.60;;;18.59;68.11
24013;BME280;12220;50.194;18.948;2023-08-01T00:56:09;101046.13;;;18.57;68.08
24013;BME280;12220;50.194;18.948;2023-08-01T00:58:10;101040.00;;;18.53;68.19
24013;BME280;12220;50.194;18.948;2023-08-01T01:00:12;101044.68;;;18.53;68.28
24013;BME280;12220;50.194;18.948;2023-08-01T01:02:13;101026.45;;;18.50;68.36
24013;BME280;12220;50.194;18.948;2023-08-01T01:04:23;101022.96;;;18.48;68.38
24013;BME280;12220;50.194;18.948;2023-08-01T01:08:37;101018.43;;;18.47;68.45
24013;BME280;12220;50.194;18.948;2023-08-01T01:10:38;101019.29;;;18.47;68.50
24013;BME280;12220;50.194;18.948;2023-08-01T01:12:42;101005.59;;;18.46;68.48
24013;BME280;12220;50.194;18.948;2023-08-01T01:14:43;100998.16;;;18.46;68.51
24013;BME280;12220;50.194;18.948;2023-08-01T01:16:44;100994.49;;;18.46;68.56
24013;BME280;12220;50.194;18.948;2023-08-01T01:18:45;100989.84;;;18.46;68.59
24013;BME280;12220;50.194;18.948;2023-08-01T01:20:56;100984.45;;;18.45;68.59
24013;BME280;12220;50.194;18.948;2023-08-01T01:22:58;100983.55;;;18.44;68.66
24013;BME280;12220;50.194;18.948;2023-08-01T01:25:01;100977.30;;;18.42;68.71
24013;BME280;12220;50.194;18.948;2023-08-01T01:27:04;100976.41;;;18.42;68.75
24013;BME280;12220;50.194;18.948;2023-08-01T01:29:12;100973.64;;;18.42;68.78
24013;BME280;12220;50.194;18.948;2023-08-01T01:31:15;100777.66;;;17.31;68.70
24013;BME280;12220;50.194;18.948;2023-08-01T01:33:17;100969.14;;;18.41;68.69
24013;BME280;12220;50.194;18.948;2023-08-01T01:35:20;100971.16;;;18.39;68.69
24013;BME280;12220;50.194;18.948;2023-08-01T01:37:26;100961.41;;;18.35;68.62
24013;BME280;12220;50.194;18.948;2023-08-01T01:39:31;100963.63;;;18.31;68.73
24013;BME280;12220;50.194;18.948;2023-08-01T01:41:32;100949.34;;;18.26;68.79
24013;BME280;12220;50.194;18.948;2023-08-01T01:43:34;100962.65;;;18.22;68.87
24013;BME280;12220;50.194;18.948;2023-08-01T01:45:41;100940.95;;;18.18;68.94
24013;BME280;12220;50.194;18.948;2023-08-01T01:47:45;100946.05;;;18.12;69.02
24013;BME280;12220;50.194;18.948;2023-08-01T01:49:46;100939.37;;;18.05;69.15
24013;BME280;12220;50.194;18.948;2023-08-01T01:51:47;100935.15;;;18.01;69.23
24013;BME280;12220;50.194;18.948;2023-08-01T01:53:56;100935.45;;;17.98;69.36
24013;BME280;12220;50.194;18.948;2023-08-01T01:55:58;100929.36;;;17.94;69.50
24013;BME280;12220;50.194;18.948;2023-08-01T01:57:59;100901.83;;;17.73;69.60
24013;BME280;12220;50.194;18.948;2023-08-01T02:00:00;100929.51;;;17.93;69.69
24013;BME280;12220;50.194;18.948;2023-08-01T02:02:11;100935.05;;;17.93;69.70
24013;BME280;12220;50.194;18.948;2023-08-01T02:04:12;100925.85;;;17.92;69.74
24013;BME280;12220;50.194;18.948;2023-08-01T02:06:14;100927.61;;;17.93;69.73
24013;BME280;12220;50.194;18.948;2023-08-01T02:08:15;100927.61;;;17.93;69.60
24013;BME280;12220;50.194;18.948;2023-08-01T02:10:26;100927.76;;;17.92;69.54
24013;BME280;12220;50.194;18.948;2023-08-01T02:12:27;100927.17;;;17.88;69.61
24013;BME280;12220;50.194;18.948;2023-08-01T02:14:34;100923.81;;;17.85;69.67
24013;BME280;12220;50.194;18.948;2023-08-01T02:16:36;100920.34;;;17.83;69.72
24013;BME280;12220;50.194;18.948;2023-08-01T02:18:40;100914.80;;;17.83;69.74
24013;BME280;12220;50.194;18.948;2023-08-01T02:20:42;100905.73;;;17.81;69.79
24013;BME280;12220;50.194;18.948;2023-08-01T02:22:43;100914.05;;;17.81;69.85
24013;BME280;12220;50.194;18.948;2023-08-01T02:24:45;100915.09;;;17.80;69.88
24013;BME280;12220;50.194;18.948;2023-08-01T02:26:55;100909.56;;;17.80;69.90
24013;BME280;12220;50.194;18.948;2023-08-01T02:28:57;100905.19;;;17.77;69.91
24013;BME280;12220;50.194;18.948;2023-08-01T02:30:58;100899.80;;;17.75;69.97
24013;BME280;12220;50.194;18.948;2023-08-01T02:33:00;100902.72;;;17.74;69.99
24013;BME280;12220;50.194;18.948;2023-08-01T02:35:11;100897.34;;;17.72;70.00
24013;BME280;12220;50.194;18.948;2023-08-01T02:37:12;100894.88;;;17.69;70.09
24013;BME280;12220;50.194;18.948;2023-08-01T02:39:14;100893.27;;;17.67;70.16
24013;BME280;12220;50.194;18.948;2023-08-01T02:41:15;100897.91;;;17.66;70.22
24013;BME280;12220;50.194;18.948;2023-08-01T02:43:25;100891.52;;;17.66;70.24
24013;BME280;12220;50.194;18.948;2023-08-01T02:45:26;100889.05;;;17.63;70.30
24013;BME280;12220;50.194;18.948;2023-08-01T02:47:28;100885.42;;;17.62;70.35
24013;BME280;12220;50.194;18.948;2023-08-01T02:49:29;100882.66;;;17.62;70.36
24013;BME280;12220;50.194;18.948;2023-08-01T02:51:40;100886.28;;;17.63;70.34
24013;BME280;12220;50.194;18.948;2023-08-01T02:53:41;100884.36;;;17.63;70.40
24013;BME280;12220;50.194;18.948;2023-08-01T02:55:44;100873.60;;;17.60;70.49
24013;BME280;12220;50.194;18.948;2023-08-01T02:57:47;100882.80;;;17.60;70.48
24013;BME280;12220;50.194;18.948;2023-08-01T02:59:55;100876.38;;;17.60;70.52
24013;BME280;12220;50.194;18.948;2023-08-01T03:01:56;100880.15;;;17.59;70.58
24013;BME280;12220;50.194;18.948;2023-08-01T03:03:58;100870.83;;;17.60;70.58
24013;BME280;12220;50.194;18.948;2023-08-01T03:06:00;100882.80;;;17.60;70.62
24013;BME280;12220;50.194;18.948;2023-08-01T03:08:10;100876.38;;;17.60;70.67
24013;BME280;12220;50.194;18.948;2023-08-01T03:10:11;100877.26;;;17.60;70.72
24013;BME280;12220;50.194;18.948;2023-08-01T03:12:12;100874.34;;;17.62;70.75
24013;BME280;12220;50.194;18.948;2023-08-01T03:14:14;100875.20;;;17.63;70.77
24013;BME280;12220;50.194;18.948;2023-08-01T03:16:25;100874.34;;;17.62;70.74
24013;BME280;12220;50.194;18.948;2023-08-01T03:18:26;100872.43;;;17.63;70.77
24013;BME280;12220;50.194;18.948;2023-08-01T03:20:27;100863.11;;;17.64;70.81
24013;BME280;12220;50.194;18.948;2023-08-01T03:22:29;100860.49;;;17.62;70.86
24013;BME280;12220;50.194;18.948;2023-08-01T03:24:39;100856.68;;;17.63;70.82
24013;BME280;12220;50.194;18.948;2023-08-01T03:26:46;100851.30;;;17.62;70.85
24013;BME280;12220;50.194;18.948;2023-08-01T03:28:48;100856.68;;;17.63;71.01
24013;BME280;12220;50.194;18.948;2023-08-01T03:30:49;100854.81;;;17.64;70.83
24013;BME280;12220;50.194;18.948;2023-08-01T03:32:54;100653.83;;;16.48;70.73
24013;BME280;12220;50.194;18.948;2023-08-01T03:34:56;100846.04;;;17.68;70.85
24013;BME280;12220;50.194;18.948;2023-08-01T03:36:57;100840.50;;;17.68;70.84
24013;BME280;12220;50.194;18.948;2023-08-01T03:38:58;100839.33;;;17.71;70.81
24013;BME280;12220;50.194;18.948;2023-08-01T03:41:09;100846.58;;;17.72;70.78
24013;BME280;12220;50.194;18.948;2023-08-01T03:43:11;100845.73;;;17.71;70.80
24013;BME280;12220;50.194;18.948;2023-08-01T03:45:12;100845.73;;;17.71;70.86
24013;BME280;12220;50.194;18.948;2023-08-01T03:47:13;100846.58;;;17.72;70.89
24013;BME280;12220;50.194;18.948;2023-08-01T03:49:24;100845.58;;;17.73;70.93
24013;BME280;12220;50.194;18.948;2023-08-01T03:51:26;100844.71;;;17.72;70.94
24013;BME280;12220;50.194;18.948;2023-08-01T03:53:27;100841.78;;;17.74;70.95
24013;BME280;12220;50.194;18.948;2023-08-01T03:55:28;100844.57;;;17.74;70.93
24013;BME280;12220;50.194;18.948;2023-08-01T03:57:39;100849.05;;;17.75;70.87
24013;BME280;12220;50.194;18.948;2023-08-01T03:59:40;100841.64;;;17.75;70.86
24013;BME280;12220;50.194;18.948;2023-08-01T04:01:43;100844.25;;;17.77;70.84
24013;BME280;12220;50.194;18.948;2023-08-01T04:03:44;100837.70;;;17.78;70.82
24013;BME280;12220;50.194;18.948;2023-08-01T04:05:54;100836.50;;;17.81;70.81
24013;BME280;12220;50.194;18.948;2023-08-01T04:07:59;100841.88;;;17.82;70.81
24013;BME280;12220;50.194;18.948;2023-08-01T04:10:00;100834.61;;;17.81;70.83
24013;BME280;12220;50.194;18.948;2023-08-01T04:12:02;100838.55;;;17.78;70.82
24013;BME280;12220;50.194;18.948;2023-08-01T04:14:09;100844.10;;;17.78;70.83
24013;BME280;12220;50.194;18.948;2023-08-01T04:16:10;100844.10;;;17.78;70.85
24013;BME280;12220;50.194;18.948;2023-08-01T04:18:11;100847.73;;;17.79;70.85
24013;BME280;12220;50.194;18.948;2023-08-01T04:20:12;100843.95;;;17.80;70.90
24013;BME280;12220;50.194;18.948;2023-08-01T04:22:23;100841.88;;;17.82;70.92
24013;BME280;12220;50.194;18.948;2023-08-01T04:24:25;100833.73;;;17.81;70.95
24013;BME280;12220;50.194;18.948;2023-08-01T04:26:30;100833.73;;;17.81;70.97
24013;BME280;12220;50.194;18.948;2023-08-01T04:28:32;100830.80;;;17.82;70.97
24013;BME280;12220;50.194;18.948;2023-08-01T04:30:38;100828.61;;;17.86;70.95
24013;BME280;12220;50.194;18.948;2023-08-01T04:32:40;100832.10;;;17.88;70.97
24013;BME280;12220;50.194;18.948;2023-08-01T04:34:41;100827.33;;;17.90;71.01
24013;BME280;12220;50.194;18.948;2023-08-01T04:36:43;100821.47;;;17.93;71.00
24013;BME280;12220;50.194;18.948;2023-08-01T04:38:53;100828.45;;;17.97;70.98
24013;BME280;12220;50.194;18.948;2023-08-01T04:40:54;100827.09;;;18.01;71.03
24013;BME280;12220;50.194;18.948;2023-08-01T04:42:56;100823.88;;;18.06;71.04
24013;BME280;12220;50.194;18.948;2023-08-01T04:44:58;100828.06;;;18.10;71.01
24013;BME280;12220;50.194;18.948;2023-08-01T04:47:11;100817.40;;;18.15;71.03
24013;BME280;12220;50.194;18.948;2023-08-01T04:49:12;100820.72;;;18.19;71.06
24013;BME280;12220;50.194;18.948;2023-08-01T04:51:13;100824.06;;;18.22;71.11
24013;BME280;12220;50.194;18.948;2023-08-01T04:53:15;100825.66;;;18.25;71.14
24013;BME280;12220;50.194;18.948;2023-08-01T04:55:23;100818.91;;;18.27;71.13
24013;BME280;12220;50.194;18.948;2023-08-01T04:57:24;100823.28;;;18.30;71.15
24013;BME280;12220;50.194;18.948;2023-08-01T04:59:26;100822.09;;;18.33;71.08
24013;BME280;12220;50.194;18.948;2023-08-01T05:01:27;100821.63;;;18.37;71.02
24013;BME280;12220;50.194;18.948;2023-08-01T05:03:38;100824.09;;;18.40;70.98
24013;BME280;12220;50.194;18.948;2023-08-01T05:05:39;100823.76;;;18.43;70.96
24013;BME280;12220;50.194;18.948;2023-08-01T05:07:40;100823.31;;;18.48;70.93
24013;BME280;12220;50.194;18.948;2023-08-01T05:09:42;100827.49;;;18.52;70.88
24013;BME280;12220;50.194;18.948;2023-08-01T05:11:52;100821.66;;;18.55;70.84
24013;BME280;12220;50.194;18.948;2023-08-01T05:13:54;100815.80;;;18.58;70.84
24013;BME280;12220;50.194;18.948;2023-08-01T05:15:58;100818.24;;;18.61;70.82
24013;BME280;12220;50.194;18.948;2023-08-01T05:17:59;100821.56;;;18.65;70.80
24013;BME280;12220;50.194;18.948;2023-08-01T05:20:08;100814.66;;;18.69;70.76
24013;BME280;12220;50.194;18.948;2023-08-01T05:22:09;100820.79;;;18.73;70.78
24013;BME280;12220;50.194;18.948;2023-08-01T05:24:11;100826.88;;;18.76;70.78
24013;BME280;12220;50.194;18.948;2023-08-01T05:26:12;100821.00;;;18.79;70.82
24013;BME280;12220;50.194;18.948;2023-08-01T05:28:22;100826.08;;;18.84;70.78
24013;BME280;12220;50.194;18.948;2023-08-01T05:30:24;100823.01;;;18.87;70.80
24013;BME280;12220;50.194;18.948;2023-08-01T05:32:26;100818.02;;;18.91;70.84
24013;BME280;12220;50.194;18.948;2023-08-01T05:34:27;100833.33;;;18.95;70.88
24013;BME280;12220;50.194;18.948;2023-08-01T05:36:37;100831.23;;;18.97;70.87
24013;BME280;12220;50.194;18.948;2023-08-01T05:38:38;100834.75;;;18.99;70.94
24013;BME280;12220;50.194;18.948;2023-08-01T05:40:40;100830.59;;;19.03;71.09
24013;BME280;12220;50.194;18.948;2023-08-01T05:42:44;100836.72;;;19.07;71.19
24013;BME280;12220;50.194;18.948;2023-08-01T05:44:52;100837.41;;;19.09;71.20
24013;BME280;12220;50.194;18.948;2023-08-01T05:46:53;100832.58;;;19.11;71.41
24013;BME280;12220;50.194;18.948;2023-08-01T05:48:55;100832.26;;;19.14;71.48
24013;BME280;12220;50.194;18.948;2023-08-01T05:50:56;100827.24;;;19.18;71.60
24013;BME280;12220;50.194;18.948;2023-08-01T05:53:07;100826.78;;;19.22;71.74
24013;BME280;12220;50.194;18.948;2023-08-01T05:55:09;100827.31;;;19.26;71.84
24013;BME280;12220;50.194;18.948;2023-08-01T05:57:13;100828.73;;;19.30;72.02
24013;BME280;12220;50.194;18.948;2023-08-01T05:59:14;100826.16;;;19.37;72.12
24013;BME280;12220;50.194;18.948;2023-08-01T06:01:22;100820.84;;;19.43;72.16
24013;BME280;12220;50.194;18.948;2023-08-01T06:03:23;100828.67;;;19.48;72.32
24013;BME280;12220;50.194;18.948;2023-08-01T06:05:31;100829.06;;;19.53;72.35
24013;BME280;12220;50.194;18.948;2023-08-01T06:07:32;100829.42;;;19.58;72.41
24013;BME280;12220;50.194;18.948;2023-08-01T06:09:36;100820.59;;;19.63;72.44
24013;BME280;12220;50.194;18.948;2023-08-01T06:11:38;100817.34;;;19.67;72.42
24013;BME280;12220;50.194;18.948;2023-08-01T06:13:39;100814.92;;;19.73;72.46
24013;BME280;12220;50.194;18.948;2023-08-01T06:15:41;100811.64;;;19.77;72.51
24013;BME280;12220;50.194;18.948;2023-08-01T06:17:51;100811.20;;;19.82;72.46
24013;BME280;12220;50.194;18.948;2023-08-01T06:19:53;100807.02;;;19.86;72.49
24013;BME280;12220;50.194;18.948;2023-08-01T06:21:55;100810.36;;;19.90;72.44
24013;BME280;12220;50.194;18.948;2023-08-01T06:23:57;100806.21;;;19.94;72.39
24013;BME280;12220;50.194;18.948;2023-08-01T06:26:06;100804.67;;;19.99;72.32
24013;BME280;12220;50.194;18.948;2023-08-01T06:28:07;100801.55;;;20.02;72.27
24013;BME280;12220;50.194;18.948;2023-08-01T06:30:09;100803.83;;;20.07;72.24
24013;BME280;12220;50.194;18.948;2023-08-01T06:32:11;100796.55;;;20.14;72.19
24013;BME280;12220;50.194;18.948;2023-08-01T06:34:21;100797.97;;;20.18;72.16
24013;BME280;12220;50.194;18.948;2023-08-01T06:36:22;100799.20;;;20.24;72.14
24013;BME280;12220;50.194;18.948;2023-08-01T06:38:24;100795.73;;;20.30;72.17
24013;BME280;12220;50.194;18.948;2023-08-01T06:40:25;100791.40;;;20.36;72.11
24013;BME280;12220;50.194;18.948;2023-08-01T06:42:36;100778.38;;;20.45;71.98
24013;BME280;12220;50.194;18.948;2023-08-01T06:44:37;100777.68;;;20.51;71.92
24013;BME280;12220;50.194;18.948;2023-08-01T06:46:38;100776.98;;;20.57;71.85
24013;BME280;12220;50.194;18.948;2023-08-01T06:48:40;100772.30;;;20.66;71.65
24013;BME280;12220;50.194;18.948;2023-08-01T06:50:50;100766.95;;;20.72;71.26
24013;BME280;12220;50.194;18.948;2023-08-01T06:52:52;100770.78;;;20.80;71.11
24013;BME280;12220;50.194;18.948;2023-08-01T06:54:53;100770.94;;;20.86;70.86
24013;BME280;12220;50.194;18.948;2023-08-01T06:56:54;100776.52;;;20.95;70.70
24013;BME280;12220;50.194;18.948;2023-08-01T06:59:05;100755.27;;;21.02;70.41
24013;BME280;12220;50.194;18.948;2023-08-01T07:01:07;100755.46;;;21.09;70.14
24013;BME280;12220;50.194;18.948;2023-08-01T07:03:08;100753.85;;;21.14;69.90
24013;BME280;12220;50.194;18.948;2023-08-01T07:05:11;100761.52;;;21.20;69.68
24013;BME280;12220;50.194;18.948;2023-08-01T07:07:20;100760.81;;;21.27;69.39
24013;BME280;12220;50.194;18.948;2023-08-01T07:09:21;100761.12;;;21.32;69.13
24013;BME280;12220;50.194;18.948;2023-08-01T07:11:23;100759.55;;;21.37;68.98
24013;BME280;12220;50.194;18.948;2023-08-01T07:13:27;100746.83;;;21.43;68.99
24013;BME280;12220;50.194;18.948;2023-08-01T07:15:35;100753.42;;;21.50;68.93
24013;BME280;12220;50.194;18.948;2023-08-01T07:17:36;100744.20;;;21.58;68.82
24013;BME280;12220;50.194;18.948;2023-08-01T07:19:38;100743.32;;;21.66;68.52
24013;BME280;12220;50.194;18.948;2023-08-01T07:21:39;100743.26;;;21.74;68.24
24013;BME280;12220;50.194;18.948;2023-08-01T07:23:50;100763.59;;;21.83;68.02
24013;BME280;12220;50.194;18.948;2023-08-01T07:25:51;100729.45;;;21.89;67.83
24013;BME280;12220;50.194;18.948;2023-08-01T07:27:52;100732.18;;;21.97;67.82
24013;BME280;12220;50.194;18.948;2023-08-01T07:29:54;100735.11;;;22.04;67.58
24013;BME280;12220;50.194;18.948;2023-08-01T07:32:05;100735.07;;;22.12;67.42
24013;BME280;12220;50.194;18.948;2023-08-01T07:34:07;100735.38;;;22.17;66.91
24013;BME280;12220;50.194;18.948;2023-08-01T07:36:08;100737.41;;;22.23;66.80
24013;BME280;12220;50.194;18.948;2023-08-01T07:38:09;100734.59;;;22.32;66.76
24013;BME280;12220;50.194;18.948;2023-08-01T07:40:22;100730.03;;;22.39;66.37
24013;BME280;12220;50.194;18.948;2023-08-01T07:42:41;100732.96;;;22.45;66.19
24013;BME280;12220;50.194;18.948;2023-08-01T07:44:42;100736.71;;;22.53;66.04
24013;BME280;12220;50.194;18.948;2023-08-01T07:46:43;100729.70;;;22.57;65.98
24013;BME280;12220;50.194;18.948;2023-08-01T07:48:45;100736.48;;;22.62;66.07
24013;BME280;12220;50.194;18.948;2023-08-01T07:50:55;100739.38;;;22.69;66.09
24013;BME280;12220;50.194;18.948;2023-08-01T07:52:57;100747.57;;;22.71;66.04
24013;BME280;12220;50.194;18.948;2023-08-01T07:54:58;100752.11;;;22.72;65.79
24013;BME280;12220;50.194;18.948;2023-08-01T07:57:03;100741.80;;;22.72;66.03
24013;BME280;12220;50.194;18.948;2023-08-01T07:59:10;100746.52;;;22.72;66.17
24013;BME280;12220;50.194;18.948;2023-08-01T08:01:12;100754.20;;;22.70;66.30
24013;BME280;12220;50.194;18.948;2023-08-01T08:03:13;100748.13;;;22.66;66.34
24013;BME280;12220;50.194;18.948;2023-08-01T08:05:14;100748.52;;;22.63;66.42
24013;BME280;12220;50.194;18.948;2023-08-01T08:07:25;100745.88;;;22.61;66.67
24013;BME280;12220;50.194;18.948;2023-08-01T08:09:26;100745.88;;;22.61;66.94
24013;BME280;12220;50.194;18.948;2023-08-01T08:11:28;100739.63;;;22.59;67.18
24013;BME280;12220;50.194;18.948;2023-08-01T08:13:29;100746.08;;;22.60;67.39
24013;BME280;12220;50.194;18.948;2023-08-01T08:15:40;100736.84;;;22.59;67.38
24013;BME280;12220;50.194;18.948;2023-08-01T08:17:41;100732.13;;;22.60;67.40
24013;BME280;12220;50.194;18.948;2023-08-01T08:19:44;100727.23;;;22.62;67.51
24013;BME280;12220;50.194;18.948;2023-08-01T08:21:46;100722.32;;;22.64;67.49
24013;BME280;12220;50.194;18.948;2023-08-01T08:23:55;100724.54;;;22.69;67.52
24013;BME280;12220;50.194;18.948;2023-08-01T08:25:56;100724.39;;;22.70;67.59
24013;BME280;12220;50.194;18.948;2023-08-01T08:27:58;100726.80;;;22.73;67.55
24013;BME280;12220;50.194;18.948;2023-08-01T08:29:59;100726.61;;;22.75;67.64
24013;BME280;12220;50.194;18.948;2023-08-01T08:32:09;100721.50;;;22.78;67.78
24013;BME280;12220;50.194;18.948;2023-08-01T08:34:11;100726.61;;;22.75;67.51
24013;BME280;12220;50.194;18.948;2023-08-01T08:36:13;100722.93;;;22.74;67.41
24013;BME280;12220;50.194;18.948;2023-08-01T08:38:14;100716.49;;;22.74;67.48
24013;BME280;12220;50.194;18.948;2023-08-01T08:40:24;100712.65;;;22.75;67.52
24013;BME280;12220;50.194;18.948;2023-08-01T08:42:26;100720.52;;;22.71;67.42
24013;BME280;12220;50.194;18.948;2023-08-01T08:44:27;100719.85;;;22.69;67.16
24013;BME280;12220;50.194;18.948;2023-08-01T08:46:50;100722.84;;;22.68;67.07
24013;BME280;12220;50.194;18.948;2023-08-01T08:48:49;100715.51;;;22.67;67.29
24013;BME280;12220;50.194;18.948;2023-08-01T08:51:01;100718.30;;;22.67;67.36
24013;BME280;12220;50.194;18.948;2023-08-01T08:53:04;100712.05;;;22.65;67.48
24013;BME280;12220;50.194;18.948;2023-08-01T08:55:13;100713.38;;;22.69;67.41
24013;BME280;12220;50.194;18.948;2023-08-01T08:57:15;100710.24;;;22.72;67.40
24013;BME280;12220;50.194;18.948;2023-08-01T08:59:18;100708.79;;;22.76;67.45
24013;BME280;12220;50.194;18.948;2023-08-01T09:01:21;100708.44;;;22.79;67.46
24013;BME280;12220;50.194;18.948;2023-08-01T09:03:22;100706.12;;;22.83;67.41
24013;BME280;12220;50.194;18.948;2023-08-01T09:05:27;100703.64;;;22.88;67.28
24013;BME280;12220;50.194;18.948;2023-08-01T09:07:35;100703.45;;;22.89;67.19
24013;BME280;12220;50.194;18.948;2023-08-01T09:09:40;100698.72;;;22.90;67.10
24013;BME280;12220;50.194;18.948;2023-08-01T09:11:50;100696.78;;;22.90;67.04
24013;BME280;12220;50.194;18.948;2023-08-01T09:13:52;100686.50;;;22.91;66.82
24013;BME280;12220;50.194;18.948;2023-08-01T09:15:54;100696.40;;;22.93;66.92
24013;BME280;12220;50.194;18.948;2023-08-01T09:17:57;100688.91;;;22.94;67.00
24013;BME280;12220;50.194;18.948;2023-08-01T09:20:04;100693.92;;;22.98;67.08
24013;BME280;12220;50.194;18.948;2023-08-01T09:22:11;100683.80;;;22.97;66.80
24013;BME280;12220;50.194;18.948;2023-08-01T09:24:14;100685.16;;;23.02;66.71
24013;BME280;12220;50.194;18.948;2023-08-01T09:26:18;100690.55;;;23.03;66.74
24013;BME280;12220;50.194;18.948;2023-08-01T09:28:21;100682.66;;;23.07;66.90
24013;BME280;12220;50.194;18.948;2023-08-01T09:30:22;100679.48;;;23.10;66.92
24013;BME280;12220;50.194;18.948;2023-08-01T09:32:24;100681.73;;;23.14;66.74
24013;BME280;12220;50.194;18.948;2023-08-01T09:34:27;100671.23;;;23.17;66.35
24013;BME280;12220;50.194;18.948;2023-08-01T09:36:28;100666.14;;;23.20;66.32
24013;BME280;12220;50.194;18.948;2023-08-01T09:38:34;100665.36;;;23.26;66.19
24013;BME280;12220;50.194;18.948;2023-08-01T09:40:40;100668.65;;;23.30;65.88
24013;BME280;12220;50.194;18.948;2023-08-01T09:42:42;100667.37;;;23.32;65.13
24013;BME280;12220;50.194;18.948;2023-08-01T09:44:45;100658.80;;;23.34;65.02
24013;BME280;12220;50.194;18.948;2023-08-01T09:46:57;100655.62;;;23.37;65.07
24013;BME280;12220;50.194;18.948;2023-08-01T09:49:06;100654.16;;;23.41;65.08
24013;BME280;12220;50.194;18.948;2023-08-01T09:51:16;100650.72;;;23.39;64.59
24013;BME280;12220;50.194;18.948;2023-08-01T09:53:18;100649.87;;;23.39;64.17
24013;BME280;12220;50.194;18.948;2023-08-01T09:57:31;100648.38;;;23.43;64.39
24013;BME280;12220;50.194;18.948;2023-08-01T09:59:33;100640.69;;;23.45;64.62
24013;BME280;12220;50.194;18.948;2023-08-01T10:01:36;100638.95;;;23.44;64.53
24013;BME280;12220;50.194;18.948;2023-08-01T10:03:44;100639.80;;;23.44;64.48
24013;BME280;12220;50.194;18.948;2023-08-01T10:05:48;100639.80;;;23.44;64.48
24013;BME280;12220;50.194;18.948;2023-08-01T10:07:58;100641.55;;;23.45;64.49
24013;BME280;12220;50.194;18.948;2023-08-01T10:10:07;100635.29;;;23.43;64.15
24013;BME280;12220;50.194;18.948;2023-08-01T10:12:09;100635.50;;;23.42;63.21
24013;BME280;12220;50.194;18.948;2023-08-01T10:14:14;100638.69;;;23.39;62.77
24013;BME280;12220;50.194;18.948;2023-08-01T10:16:16;100637.60;;;23.40;62.33
24013;BME280;12220;50.194;18.948;2023-08-01T10:18:21;100634.80;;;23.40;61.52
24013;BME280;12220;50.194;18.948;2023-08-01T10:20:26;100631.05;;;23.32;59.64
24013;BME280;12220;50.194;18.948;2023-08-01T10:22:31;100637.33;;;23.35;60.29
24013;BME280;12220;50.194;18.948;2023-08-01T10:24:33;100643.77;;;23.35;60.67
24013;BME280;12220;50.194;18.948;2023-08-01T10:26:35;100638.19;;;23.35;60.95
24013;BME280;12220;50.194;18.948;2023-08-01T10:28:41;100646.10;;;23.31;60.88
24013;BME280;12220;50.194;18.948;2023-08-01T10:30:47;100641.27;;;23.25;60.71
24013;BME280;12220;50.194;18.948;2023-08-01T10:32:57;100645.53;;;23.21;60.65
24013;BME280;12220;50.194;18.948;2023-08-01T10:34:58;100652.56;;;23.17;60.94
24013;BME280;12220;50.194;18.948;2023-08-01T10:37:00;100649.66;;;23.10;61.65
24013;BME280;12220;50.194;18.948;2023-08-01T10:39:02;100658.09;;;23.02;62.40
24013;BME280;12220;50.194;18.948;2023-08-01T10:41:03;100670.80;;;22.90;62.82
24013;BME280;12220;50.194;18.948;2023-08-01T10:45:28;100658.70;;;22.59;64.31